Time;durP1;ratioP1;P1;durP2;ratioP2;P2;SDS_P1;SDS_P2;PMS_P1;PMS_P2;Temp;Humidity;BMP_temperature;BMP_pressure;BME280_temperature;BME280_humidity;BME280_pressure;Samples;Min_cycle;Max_cycle;Signal;HPM_P1;HPM_P2
2023/04/26 00:00:08;;;;;;;32.77;13.73;;;;;;;11.71;89.28;99276.85;125367;1086;104289;-80
2023/04/26 00:02:59;;;;;;;27.87;12.60;;;;;;;11.72;89.31;99283.88;125394;1086;104334;-80
2023/04/26 00:05:28;;;;;;;30.13;14.93;;;;;;;11.71;90.51;99281.23;125333;1086;104351;-79
2023/04/26 00:07:58;;;;;;;31.53;14.20;;;;;;;11.71;89.77;99271.59;125329;1086;104328;-81
2023/04/26 00:10:26;;;;;;;36.43;15.13;;;;;;;11.72;89.75;99272.47;125430;1086;104180;-80
2023/04/26 00:12:55;;;;;;;33.50;15.67;;;;;;;11.72;89.87;99269.84;125389;1086;104273;-80
2023/04/26 00:15:24;;;;;;;36.03;15.13;;;;;;;11.73;90.10;99263.73;125627;1086;104276;-80
2023/04/26 00:17:52;;;;;;;33.10;14.63;;;;;;;11.73;89.94;99267.23;125341;1086;107731;-80
2023/04/26 00:20:21;;;;;;;30.70;15.27;;;;;;;11.73;90.08;99275.12;125546;1086;104226;-80
2023/04/26 00:22:49;;;;;;;32.43;14.37;;;;;;;11.74;90.59;99273.39;125292;1086;104350;-81
2023/04/26 00:25:18;;;;;;;32.63;15.20;;;;;;;11.72;90.54;99270.75;125445;1086;104363;-81
2023/04/26 00:27:47;;;;;;;34.50;14.47;;;;;;;11.73;90.07;99268.98;125282;1086;104265;-80
2023/04/26 00:30:16;;;;;;;33.25;15.10;;;;;;;11.75;90.79;99260.27;125371;1086;104471;-81
2023/04/26 00:32:45;;;;;;;29.40;15.27;;;;;;;11.75;90.34;99261.99;125487;1086;104232;-80
2023/04/26 00:35:14;;;;;;;35.23;14.97;;;;;;;11.75;90.42;99268.16;125387;1086;104832;-81
2023/04/26 00:37:43;;;;;;;33.50;15.97;;;;;;;11.78;90.19;99267.28;125352;1086;104257;-81
2023/04/26 00:40:15;;;;;;;31.30;15.50;;;;;;;11.79;90.15;99262.05;125368;1086;104200;-81
2023/04/26 00:42:43;;;;;;;37.70;15.37;;;;;;;11.79;90.09;99269.92;125517;1086;104440;-81
2023/04/26 00:45:12;;;;;;;32.73;14.90;;;;;;;11.81;90.25;99262.97;125473;1086;104286;-79
2023/04/26 00:47:41;;;;;;;31.05;15.50;;;;;;;11.82;90.31;99261.20;125445;1086;104290;-79
2023/04/26 00:50:10;;;;;;;34.20;16.20;;;;;;;11.84;90.42;99268.25;125322;1086;104283;-80
2023/04/26 00:52:39;;;;;;;34.60;15.90;;;;;;;11.84;90.33;99263.00;125400;1086;104289;-80
2023/04/26 00:55:09;;;;;;;33.80;16.10;;;;;;;11.85;90.44;99262.11;125513;1086;104200;-81
2023/04/26 00:57:39;;;;;;;38.17;16.80;;;;;;;11.85;90.34;99256.85;125408;1086;104228;-80
2023/04/26 01:00:11;;;;;;;31.70;15.83;;;;;;;11.86;90.23;99255.13;125362;1086;104296;-79
2023/04/26 01:02:40;;;;;;;30.80;15.13;;;;;;;11.87;90.40;99252.52;125492;1086;104372;-80
2023/04/26 01:05:09;;;;;;;35.40;15.97;;;;;;;11.87;90.49;99252.52;125458;1086;104216;-81
2023/04/26 01:07:39;;;;;;;30.87;15.37;;;;;;;11.88;90.66;99256.89;125310;1086;104299;-80
2023/04/26 01:10:09;;;;;;;37.67;16.93;;;;;;;11.88;90.77;99251.63;125521;1086;104657;-81
2023/04/26 01:12:38;;;;;;;36.70;16.37;;;;;;;11.90;90.55;99253.41;125808;1086;104238;-81
2023/04/26 01:15:09;;;;;;;33.80;17.00;;;;;;;11.90;90.83;99262.16;125846;1086;104238;-81
2023/04/26 01:17:38;;;;;;;37.30;16.53;;;;;;;11.89;90.86;99255.16;125688;1086;104366;-81
2023/04/26 01:20:09;;;;;;;37.50;16.60;;;;;;;11.90;90.76;99250.78;125439;1086;104347;-81
2023/04/26 01:22:37;;;;;;;33.20;15.90;;;;;;;11.90;90.63;99249.02;125400;1086;104197;-81
2023/04/26 01:25:10;;;;;;;34.70;16.73;;;;;;;11.92;90.78;99255.23;125365;1086;104215;-81
2023/04/26 01:27:40;;;;;;;33.40;16.57;;;;;;;11.92;90.50;99251.66;125369;1086;104161;-81
2023/04/26 01:30:11;;;;;;;31.85;16.05;;;;;;;11.92;90.81;99252.59;125509;1086;104353;-79
2023/04/26 01:32:39;;;;;;;31.17;16.37;;;;;;;11.92;90.86;99249.03;125291;1086;104324;-80
2023/04/26 01:35:09;;;;;;;36.53;15.57;;;;;;;11.92;90.86;99244.72;125278;1086;104511;-80
2023/04/26 01:37:37;;;;;;;34.33;17.13;;;;;;;11.94;91.17;99252.62;125245;1086;105659;-80
2023/04/26 01:40:10;;;;;;;37.30;17.30;;;;;;;11.93;91.12;99248.22;125332;1086;104258;-80
2023/04/26 01:42:38;;;;;;;35.50;16.27;;;;;;;11.94;91.00;99249.98;125625;1086;104268;-80
2023/04/26 01:45:08;;;;;;;33.30;17.00;;;;;;;11.94;91.12;99245.60;125266;1086;104174;-79
2023/04/26 01:47:56;;;;;;;33.70;17.60;;;;;;;11.95;91.30;99238.58;125550;1085;105591;-79
2023/04/26 01:50:25;;;;;;;30.97;16.23;;;;;;;11.95;91.21;99241.22;125299;1086;104219;-78
2023/04/26 01:52:53;;;;;;;31.03;16.63;;;;;;;11.94;91.46;99240.34;125340;1086;104361;-79
2023/04/26 01:55:24;;;;;;;37.03;17.57;;;;;;;11.95;91.61;99241.22;125420;1086;104329;-81
2023/04/26 01:57:53;;;;;;;34.30;17.30;;;;;;;11.93;91.43;99230.69;125337;1086;104287;-79
2023/04/26 02:00:22;;;;;;;32.90;17.13;;;;;;;11.93;92.03;99235.07;125309;1086;104225;-80
2023/04/26 02:02:53;;;;;;;33.17;17.70;;;;;;;11.91;91.76;99245.53;125485;1085;104290;-81
2023/04/26 02:05:23;;;;;;;36.90;18.43;;;;;;;11.91;92.14;99240.28;125392;1086;104324;-81
2023/04/26 02:07:51;;;;;;;35.30;17.23;;;;;;;11.90;92.27;99243.77;125644;1086;104262;-78
2023/04/26 02:10:20;;;;;;;34.43;16.80;;;;;;;11.91;92.48;99239.41;125334;1086;104331;-81
2023/04/26 02:12:48;;;;;;;37.23;18.70;;;;;;;11.90;92.09;99235.00;125650;1086;104223;-80
2023/04/26 02:15:17;;;;;;;33.70;18.70;;;;;;;11.92;92.30;99228.94;125463;1086;104344;-81
2023/04/26 02:17:46;;;;;;;35.47;18.77;;;;;;;11.93;92.10;99224.55;125612;1086;104235;-80
2023/04/26 02:20:15;;;;;;;37.83;18.47;;;;;;;11.93;92.32;99227.19;125349;1086;104257;-80
2023/04/26 02:22:44;;;;;;;35.87;18.40;;;;;;;11.93;92.82;99229.81;125307;1086;104424;-80
2023/04/26 02:25:17;;;;;;;34.20;17.95;;;;;;;11.92;92.80;99228.00;125454;1086;104274;-80
2023/04/26 02:27:45;;;;;;;33.80;18.25;;;;;;;11.91;92.39;99224.51;125370;1086;104366;-80
2023/04/26 02:30:14;;;;;;;31.60;16.97;;;;;;;11.92;92.29;99220.12;125381;1086;105649;-80
2023/04/26 02:32:43;;;;;;;32.17;18.27;;;;;;;11.92;92.29;99214.86;125390;1086;104360;-80
2023/04/26 02:35:14;;;;;;;35.85;18.85;;;;;;;11.91;92.36;99211.36;125321;1086;104345;-80
2023/04/26 02:37:47;;;;;;;38.93;17.50;;;;;;;11.92;93.37;99213.17;125685;1085;104290;-81
2023/04/26 02:40:16;;;;;;;36.33;18.97;;;;;;;11.91;93.01;99215.75;125357;1086;104238;-81
2023/04/26 02:42:45;;;;;;;32.20;17.90;;;;;;;11.88;92.86;99209.58;125369;1086;104199;-79
2023/04/26 02:45:14;;;;;;;31.57;17.20;;;;;;;11.88;93.01;99206.08;125515;1086;104311;-78
2023/04/26 02:47:42;;;;;;;29.60;17.50;;;;;;;11.87;92.97;99210.46;125346;1086;104363;-80
2023/04/26 02:50:12;;;;;;;32.10;17.17;;;;;;;11.87;93.62;99206.93;125388;1086;104360;-79
2023/04/26 02:52:40;;;;;;;33.47;17.13;;;;;;;11.85;94.12;99199.03;125447;1086;104210;-80
2023/04/26 02:55:10;;;;;;;34.60;17.37;;;;;;;11.85;93.36;99206.91;125738;1086;104255;-80
2023/04/26 02:57:38;;;;;;;33.35;17.10;;;;;;;11.86;93.79;99208.69;125408;1086;104328;-80
2023/04/26 03:00:13;;;;;;;33.47;18.20;;;;;;;11.87;93.47;99214.81;125307;1086;104379;-80
2023/04/26 03:02:41;;;;;;;31.60;16.00;;;;;;;11.86;93.69;99211.31;125860;1086;104216;-81
2023/04/26 03:05:10;;;;;;;32.10;16.90;;;;;;;11.88;93.69;99216.59;125634;1086;104634;-81
2023/04/26 03:07:39;;;;;;;34.53;17.23;;;;;;;11.88;93.49;99212.20;125467;1086;104257;-81
2023/04/26 03:10:09;;;;;;;32.77;16.63;;;;;;;11.91;93.68;99218.38;125412;1086;104329;-82
2023/04/26 03:12:38;;;;;;;38.33;19.13;;;;;;;11.92;93.46;99234.20;125607;1086;104379;-80
2023/04/26 03:15:08;;;;;;;35.77;17.47;;;;;;;11.94;93.51;99215.81;125580;1086;104238;-81
2023/04/26 03:17:37;;;;;;;33.10;17.17;;;;;;;11.96;94.10;99214.07;125658;1086;104354;-80
2023/04/26 03:20:09;;;;;;;33.10;16.50;;;;;;;11.96;93.79;99216.70;125613;1086;104276;-80
2023/04/26 03:22:38;;;;;;;36.47;18.33;;;;;;;11.96;93.92;99220.20;125514;1086;104887;-80
2023/04/26 03:25:08;;;;;;;33.97;16.97;;;;;;;11.97;94.42;99221.10;125641;1086;104286;-80
2023/04/26 03:27:37;;;;;;;34.73;17.70;;;;;;;11.98;94.26;99222.84;125535;1086;104286;-81
2023/04/26 03:30:08;;;;;;;34.77;17.30;;;;;;;11.97;94.27;99211.45;125656;1085;104225;-80
2023/04/26 03:32:37;;;;;;;32.43;18.07;;;;;;;12.00;94.03;99218.50;125454;1086;104152;-80
2023/04/26 03:35:07;;;;;;;33.35;18.05;;;;;;;12.01;93.78;99222.87;125541;1086;104235;-81
2023/04/26 03:37:38;;;;;;;33.47;18.93;;;;;;;12.01;94.67;99212.36;125685;1086;104296;-80
2023/04/26 03:40:10;;;;;;;39.97;17.93;;;;;;;11.99;94.66;99222.86;125575;1086;104247;-82
2023/04/26 03:42:38;;;;;;;35.37;18.40;;;;;;;12.01;94.27;99225.50;125958;1086;104378;-83
2023/04/26 03:45:09;;;;;;;35.53;18.87;;;;;;;12.03;94.46;99231.67;125556;1086;104363;-80
2023/04/26 03:47:38;;;;;;;35.03;18.13;;;;;;;12.05;94.64;99235.19;125522;1086;104389;-80
2023/04/26 03:50:09;;;;;;;35.80;18.10;;;;;;;12.05;94.46;99236.06;125260;1086;104229;-80
2023/04/26 03:52:38;;;;;;;37.93;19.73;;;;;;;12.07;94.36;99227.31;125470;1086;104229;-80
2023/04/26 03:55:09;;;;;;;37.73;18.13;;;;;;;12.09;94.62;99226.48;125744;1086;104424;-80
2023/04/26 03:57:37;;;;;;;39.47;20.03;;;;;;;12.12;94.44;99228.23;125367;1086;104284;-80
2023/04/26 04:00:10;;;;;;;34.17;18.07;;;;;;;12.17;94.46;99227.42;125431;1086;104306;-80
2023/04/26 04:02:43;;;;;;;37.33;19.80;;;;;;;12.22;94.86;99237.98;125382;1086;104507;-80
2023/04/26 04:05:13;;;;;;;36.17;18.67;;;;;;;12.26;94.69;99236.24;125321;1086;104231;-79
2023/04/26 04:07:43;;;;;;;41.15;20.00;;;;;;;12.31;94.72;99237.16;125351;1086;104302;-80
2023/04/26 04:10:12;;;;;;;34.57;18.47;;;;;;;12.35;95.24;99239.83;125403;1086;104781;-80
2023/04/26 04:12:42;;;;;;;36.53;19.23;;;;;;;12.42;94.94;99235.52;125496;1086;117952;-82
2023/04/26 04:15:11;;;;;;;34.97;18.87;;;;;;;12.47;94.86;99241.69;125517;1086;104245;-83
2023/04/26 04:17:45;;;;;;;32.20;18.00;;;;;;;12.52;94.64;99228.56;125638;1086;104650;-82
2023/04/26 04:20:14;;;;;;;37.30;19.27;;;;;;;12.57;94.24;99232.10;125789;1086;104225;-82
2023/04/26 04:22:44;;;;;;;33.13;19.17;;;;;;;12.62;94.48;99226.88;125633;1086;104270;-80
2023/04/26 04:25:13;;;;;;;42.90;20.40;;;;;;;12.66;94.58;99231.30;125777;1086;104600;-79
2023/04/26 04:27:42;;;;;;;52.90;21.50;;;;;;;12.71;94.50;99237.47;125955;1086;104213;-82
2023/04/26 04:30:13;;;;;;;36.03;19.90;;;;;;;12.76;94.64;99235.73;125832;1086;104433;-81
2023/04/26 04:32:45;;;;;;;39.57;19.73;;;;;;;12.79;94.78;99238.39;125943;1086;103391;-82
2023/04/26 04:35:15;;;;;;;37.03;19.93;;;;;;;12.81;94.87;99234.04;125899;1086;104200;-82
2023/04/26 04:37:45;;;;;;;34.97;19.40;;;;;;;12.83;94.53;99237.55;125933;1086;102651;-84
2023/04/26 04:40:17;;;;;;;35.17;19.60;;;;;;;12.86;94.74;99252.50;125839;1086;104367;-83
2023/04/26 04:42:48;;;;;;;36.88;18.62;;;;;;;12.88;94.48;99254.25;125677;1086;104232;-79
2023/04/26 04:45:19;;;;;;;36.63;19.20;;;;;;;12.90;94.72;99259.52;125841;1086;104180;-80
2023/04/26 04:47:47;;;;;;;36.37;18.30;;;;;;;12.91;94.81;99251.63;125951;1086;104220;-81
2023/04/26 04:50:16;;;;;;;40.50;20.57;;;;;;;12.94;94.60;99256.92;125776;1086;104823;-82
2023/04/26 04:52:45;;;;;;;36.97;19.40;;;;;;;12.98;94.38;99249.03;125877;1086;104367;-80
2023/04/26 04:55:13;;;;;;;34.17;19.93;;;;;;;13.03;94.71;99245.58;125892;1086;104295;-83
2023/04/26 04:57:43;;;;;;;40.67;20.57;;;;;;;13.08;94.40;99246.47;126787;1086;102062;-83
2023/04/26 05:00:14;;;;;;;33.53;19.57;;;;;;;13.11;94.19;99254.39;126118;1086;104212;-82
2023/04/26 05:02:54;;;;;;;37.53;21.10;;;;;;;13.13;94.94;99262.30;127438;1086;104247;-83
2023/04/26 05:05:22;;;;;;;35.27;20.83;;;;;;;13.15;94.32;99260.58;126048;1086;104292;-82
2023/04/26 05:07:52;;;;;;;36.10;20.30;;;;;;;13.17;94.48;99264.09;126386;1086;104293;-84
2023/04/26 05:10:21;;;;;;;38.97;20.37;;;;;;;13.20;94.17;99257.93;126754;1086;104314;-85
2023/04/26 05:12:51;;;;;;;43.73;20.43;;;;;;;13.24;93.95;99265.86;126069;1086;104283;-81
2023/04/26 05:15:19;;;;;;;41.73;20.47;;;;;;;13.27;94.20;99257.97;126104;1086;104494;-79
2023/04/26 05:17:48;;;;;;;38.53;19.53;;;;;;;13.32;94.31;99260.63;126303;1086;104315;-80
2023/04/26 05:20:36;;;;;;;34.90;19.50;;;;;;;13.37;94.21;99266.86;126860;1086;102982;-84
2023/04/26 05:23:05;;;;;;;34.20;18.80;;;;;;;13.38;94.70;99265.96;126392;1086;104190;-81
2023/04/26 05:25:39;;;;;;;35.87;18.80;;;;;;;13.37;94.29;99260.69;126805;1086;104153;-83
2023/04/26 05:28:31;;;;;;;35.07;18.97;;;;;;;13.31;94.47;99262.39;127314;1086;102250;-80
2023/04/26 05:31:18;;;;;;;35.47;18.53;;;;;;;13.30;94.01;99270.29;126809;1086;104369;-80
2023/04/26 05:33:59;;;;;;;33.83;18.50;;;;;;;13.25;94.03;99272.03;127073;1086;104252;-81
2023/04/26 05:36:38;;;;;;;43.03;20.47;;;;;;;13.19;94.11;99264.97;126717;1086;104750;-81
2023/04/26 05:39:10;;;;;;;39.67;19.80;;;;;;;13.20;93.98;99260.56;126620;1086;104229;-81
2023/04/26 05:41:42;;;;;;;37.28;20.10;;;;;;;13.23;94.21;99260.58;126975;1085;104231;-85
2023/04/26 05:44:10;;;;;;;36.67;19.70;;;;;;;13.24;93.62;99255.32;126668;1086;104289;-82
2023/04/26 05:46:40;;;;;;;47.57;21.23;;;;;;;13.25;94.65;99267.63;126953;1087;104216;-84
2023/04/26 05:49:15;;;;;;;50.07;21.10;;;;;;;13.23;93.75;99273.75;126311;1086;104751;-83
2023/04/26 05:51:47;;;;;;;53.73;22.00;;;;;;;13.23;94.53;99271.12;127316;1086;102212;-86
2023/04/26 05:54:21;;;;;;;45.27;20.73;;;;;;;13.26;94.19;99279.04;127611;1086;104392;-82
2023/04/26 05:56:59;;;;;;;55.03;23.17;;;;;;;13.31;93.97;99282.59;127507;1086;104238;-83
2023/04/26 05:59:36;;;;;;;34.90;19.55;;;;;;;13.39;94.02;99274.77;126532;1086;104232;-78
2023/04/26 06:02:05;;;;;;;36.30;20.17;;;;;;;13.44;94.04;99267.75;126432;1086;104241;-81
2023/04/26 06:08:02;;;;;;;40.50;20.00;;;;;;;13.55;93.73;99270.44;127232;1089;104510;-86
2023/04/26 06:10:31;;;;;;;37.60;20.73;;;;;;;13.58;93.59;99276.59;127241;1089;104174;-82
2023/04/26 06:13:08;;;;;;;37.37;19.80;;;;;;;13.60;93.75;99277.50;127669;1086;102153;-84
2023/04/26 06:15:41;;;;;;;36.63;20.63;;;;;;;13.62;94.21;99278.38;127417;1086;104133;-82
2023/04/26 06:18:32;;;;;;;37.90;19.20;;;;;;;13.65;93.87;99277.52;126716;1085;102993;-82
2023/04/26 06:21:07;;;;;;;38.47;20.83;;;;;;;13.67;93.92;99286.30;127533;1086;104168;-86
2023/04/26 06:23:51;;;;;;;37.53;19.73;;;;;;;13.63;94.32;99280.15;127488;1086;104159;-85
2023/04/26 06:26:21;;;;;;;32.17;18.55;;;;;;;13.61;93.53;99281.88;127404;1086;104197;-84
2023/04/26 06:29:02;;;;;;;32.87;18.87;;;;;;;13.61;93.47;99281.88;127807;1086;102259;-82
2023/04/26 06:31:36;;;;;;;32.13;19.13;;;;;;;13.69;94.14;99294.22;127525;1086;102041;-84
2023/04/26 06:34:17;;;;;;;33.83;19.23;;;;;;;13.71;93.91;99281.91;127312;1086;102805;-83
2023/04/26 06:36:49;;;;;;;30.40;18.53;;;;;;;13.75;93.58;99289.84;126758;1086;102628;-84
2023/04/26 06:39:22;;;;;;;31.12;18.12;;;;;;;13.82;94.10;99288.09;127575;1087;102215;-82
2023/04/26 06:42:03;;;;;;;34.57;18.00;;;;;;;13.89;93.19;99289.88;126766;1086;104185;-83
2023/04/26 06:48:21;;;;;;;30.80;18.23;;;;;;;14.06;93.17;99297.84;127115;1086;102463;-82
2023/04/26 06:51:06;;;;;;;32.50;18.23;;;;;;;14.08;93.68;99285.52;127207;1086;104235;-82
2023/04/26 06:53:53;;;;;;;31.13;18.43;;;;;;;14.12;93.61;99287.30;127648;1086;104207;-81
2023/04/26 06:56:36;;;;;;;29.43;15.93;;;;;;;14.18;93.06;99289.95;127866;1086;104063;-83
2023/04/26 06:59:36;;;;;;;30.00;17.07;;;;;;;14.39;93.36;99286.44;126978;1086;104286;-81
2023/04/26 07:02:10;;;;;;;29.53;16.43;;;;;;;14.52;92.68;99284.71;128036;1086;104117;-84
2023/04/26 07:04:45;;;;;;;28.40;15.00;;;;;;;14.51;92.66;99288.22;127769;1086;102324;-85
2023/04/26 07:07:35;;;;;;;26.87;14.50;;;;;;;14.54;91.85;99293.50;127827;1086;102553;-86
2023/04/26 07:10:11;;;;;;;25.17;14.37;;;;;;;14.66;91.90;99297.95;127691;1086;104168;-86
2023/04/26 07:13:12;;;;;;;26.93;14.40;;;;;;;14.84;92.56;99297.04;127545;1086;102927;-83
2023/04/26 07:15:48;;;;;;;22.87;13.07;;;;;;;14.93;91.91;99288.23;127639;1086;104266;-83
2023/04/26 07:19:00;;;;;;;;;;;;;;;;;;;;;
2023/04/26 07:22:14;;;;;;;22.33;11.93;;;;;;;15.41;90.86;99303.96;127939;1086;102667;-85
2023/04/26 07:25:01;;;;;;;21.97;11.60;;;;;;;15.63;91.16;99308.30;127604;1086;104184;-84
2023/04/26 07:27:36;;;;;;;18.90;9.60;;;;;;;15.72;88.13;99307.41;127710;1086;104170;-83
2023/04/26 07:30:20;;;;;;;17.90;9.77;;;;;;;15.78;89.06;99309.15;127079;1086;101971;-88
2023/04/26 07:32:49;;;;;;;18.20;9.33;;;;;;;15.83;88.22;99320.58;127435;1086;104315;-83
2023/04/26 07:35:23;;;;;;;16.00;9.00;;;;;;;15.87;89.09;99313.53;127421;1086;104082;-86
2023/04/26 07:37:58;;;;;;;17.97;9.73;;;;;;;15.86;87.29;99311.77;127660;1086;102667;-84
2023/04/26 07:40:30;;;;;;;18.12;9.85;;;;;;;15.94;88.78;99313.50;127961;1086;102269;-84
2023/04/26 07:43:04;;;;;;;16.57;8.87;;;;;;;16.07;87.88;99318.72;127826;1086;104322;-85
2023/04/26 07:45:49;;;;;;;18.70;9.27;;;;;;;16.17;87.40;99318.66;127825;1086;104228;-84
2023/04/26 07:48:21;;;;;;;17.30;10.13;;;;;;;16.36;86.56;99321.16;127439;1086;102056;-84
2023/04/26 07:51:12;;;;;;;19.00;9.40;;;;;;;16.62;85.06;99305.09;127454;1086;102653;-81
2023/04/26 07:53:57;;;;;;;15.30;8.53;;;;;;;16.98;83.63;99296.88;127824;1086;104159;-84
2023/04/26 07:56:28;;;;;;;19.05;9.70;;;;;;;17.16;84.29;99306.42;127595;1086;104158;-79
2023/04/26 07:59:14;;;;;;;15.40;8.55;;;;;;;17.06;82.78;99306.52;126857;1086;104180;-82
2023/04/26 08:01:43;;;;;;;16.47;8.13;;;;;;;17.01;83.45;99304.80;127125;1086;104172;-80
2023/04/26 08:04:15;;;;;;;15.90;7.80;;;;;;;17.01;84.36;99310.09;126531;1086;103314;-83
2023/04/26 08:09:42;;;;;;;;;;;;;;;16.96;82.31;99317.22;127730;1086;104353;-84
2023/04/26 08:12:35;;;;;;;14.90;7.37;;;;;;;16.94;82.31;99309.28;127553;1086;104149;-84
2023/04/26 08:15:15;;;;;;;12.57;6.77;;;;;;;17.11;82.65;99313.52;127483;1086;104161;-83
2023/04/26 08:17:47;;;;;;;13.17;6.40;;;;;;;17.23;81.42;99308.09;127990;1086;104139;-83
2023/04/26 08:20:17;;;;;;;14.03;5.50;;;;;;;17.41;80.85;99307.91;127671;1086;102152;-85
2023/04/26 08:22:57;;;;;;;9.60;5.20;;;;;;;17.51;80.43;99307.80;127736;1086;104072;-85
2023/04/26 08:25:27;;;;;;;10.80;5.60;;;;;;;17.45;79.59;99311.39;127673;1086;102079;-83
2023/04/26 08:27:56;;;;;;;10.57;5.67;;;;;;;17.35;78.95;99309.75;128008;1086;102245;-81
2023/04/26 08:30:29;;;;;;;8.17;5.00;;;;;;;17.25;77.63;99317.80;127979;1086;102285;-79
2023/04/26 08:33:17;;;;;;;7.70;4.87;;;;;;;17.12;76.94;99315.29;127859;1086;102057;-79
2023/04/26 08:35:55;;;;;;;8.50;4.60;;;;;;;16.98;76.94;99323.37;127787;1086;102463;-84
2023/04/26 08:38:31;;;;;;;8.83;5.10;;;;;;;16.77;75.63;99325.29;126846;1086;102852;-83
2023/04/26 08:44:35;;;;;;;8.10;5.00;;;;;;;16.54;75.91;99322.81;127488;1087;104162;-83
2023/04/26 08:47:17;;;;;;;11.03;5.53;;;;;;;16.47;76.21;99326.39;126785;1086;102478;-86
2023/04/26 08:49:58;;;;;;;9.77;5.80;;;;;;;16.45;76.35;99333.47;127250;1086;104152;-86
2023/04/26 08:52:29;;;;;;;10.67;5.30;;;;;;;16.50;75.66;99321.07;126832;1086;104380;-83
2023/04/26 08:55:17;;;;;;;8.77;5.30;;;;;;;16.67;76.58;99324.50;128245;1086;102184;-83
2023/04/26 08:58:01;;;;;;;7.72;5.12;;;;;;;16.92;76.70;99326.94;128762;1085;101797;-83
2023/04/26 09:00:35;;;;;;;9.93;5.17;;;;;;;17.12;75.39;99326.77;128448;1086;102170;-82
2023/04/26 09:03:15;;;;;;;9.60;5.07;;;;;;;17.27;75.72;99325.74;128018;1085;104229;-84
2023/04/26 09:06:08;;;;;;;8.60;5.23;;;;;;;17.33;75.62;99327.46;127455;1086;104130;-85
2023/04/26 09:09:10;;;;;;;;;;;;;;;;;;;;;
2023/04/26 09:15:21;;;;;;;8.77;4.90;;;;;;;16.93;72.80;99325.19;127471;1086;102642;-86
2023/04/26 09:18:15;;;;;;;6.27;4.63;;;;;;;16.87;73.83;99331.41;127266;1084;102398;-84
2023/04/26 09:21:20;;;;;;;11.63;5.23;;;;;;;16.81;74.33;99336.73;127819;1086;102337;-82
2023/04/26 09:24:15;;;;;;;9.73;5.57;;;;;;;16.76;74.24;99342.06;127512;1086;104177;-84
2023/04/26 09:27:10;;;;;;;10.67;5.80;;;;;;;16.71;74.04;99347.39;127191;1086;104180;-83
2023/04/26 09:30:29;;;;;;;15.77;8.40;;;;;;;16.60;73.75;99359.84;127781;1086;102227;-81
2023/04/26 09:33:22;;;;;;;;;;;;;;;;;;;;;
2023/04/26 09:35:55;;;;;;;17.17;9.43;;;;;;;16.40;74.13;99373.21;127056;1086;104260;-81
2023/04/26 09:38:44;;;;;;;19.67;10.30;;;;;;;16.29;74.12;99359.17;127582;1086;102206;-83
2023/04/26 09:41:41;;;;;;;17.03;9.50;;;;;;;16.22;74.12;99363.63;127887;1086;102476;-83
2023/04/26 09:44:35;;;;;;;20.20;10.00;;;;;;;16.17;74.05;99368.95;127893;1086;101996;-83
2023/04/26 09:47:21;;;;;;;18.80;10.10;;;;;;;16.12;74.29;99375.14;127802;1086;104276;-79
2023/04/26 09:50:01;;;;;;;19.80;10.03;;;;;;;16.06;73.93;99378.68;126933;1085;107677;-83
2023/04/26 09:52:43;;;;;;;17.77;9.57;;;;;;;16.07;73.97;99374.29;126764;1086;104161;-82
2023/04/26 09:58:36;;;;;;;20.87;10.40;;;;;;;16.47;74.78;99372.30;127242;1090;102099;-82
2023/04/26 10:01:23;;;;;;;17.50;9.47;;;;;;;16.82;74.14;99373.80;126855;1086;104307;-81
2023/04/26 10:04:00;;;;;;;18.20;9.77;;;;;;;17.12;74.26;99368.30;126941;1086;102445;-79
2023/04/26 10:06:32;;;;;;;17.33;9.53;;;;;;;17.38;73.93;99370.70;127262;1086;104352;-84
2023/04/26 10:09:16;;;;;;;17.97;9.50;;;;;;;17.66;73.41;99373.07;127492;1086;102091;-81
2023/04/26 10:11:46;;;;;;;18.47;9.97;;;;;;;17.93;73.21;99370.09;126924;1087;104224;-82
2023/04/26 10:14:34;;;;;;;19.17;9.87;;;;;;;18.11;72.42;99369.00;127229;1087;104229;-81
2023/04/26 10:17:04;;;;;;;20.03;11.10;;;;;;;18.31;72.70;99376.70;127066;1086;104155;-81
2023/04/26 10:19:42;;;;;;;18.67;10.20;;;;;;;18.46;72.65;99374.72;127729;1084;102069;-82
2023/04/26 10:22:24;;;;;;;20.17;10.60;;;;;;;18.57;71.90;99385.19;127226;1086;104212;-82
2023/04/26 10:24:56;;;;;;;18.25;9.50;;;;;;;18.56;71.68;99392.29;128520;1086;101816;-79
2023/04/26 10:27:51;;;;;;;15.40;8.68;;;;;;;18.55;71.30;99389.66;128195;1086;102443;-84
2023/04/26 10:30:24;;;;;;;16.77;9.27;;;;;;;18.55;71.68;99394.97;128459;1086;102184;-82
2023/04/26 10:33:17;;;;;;;16.70;9.43;;;;;;;18.68;71.18;99391.20;127562;1086;104234;-83
2023/04/26 10:36:12;;;;;;;16.67;9.23;;;;;;;18.85;71.15;99393.64;127169;1086;104232;-84
2023/04/26 10:39:20;;;;;;;16.03;9.10;;;;;;;18.96;70.25;99390.81;127559;1086;102183;-85
2023/04/26 10:41:51;;;;;;;14.23;8.83;;;;;;;18.98;69.24;99392.55;128429;1086;102787;-81
2023/04/26 10:44:44;;;;;;;16.00;8.70;;;;;;;19.00;69.09;99401.38;128173;1086;101400;-80
2023/04/26 10:47:30;;;;;;;16.07;8.43;;;;;;;19.16;69.20;99399.33;128414;1086;101782;-82
2023/04/26 10:50:06;;;;;;;18.17;8.70;;;;;;;19.32;69.72;99393.75;128167;1086;101869;-81
2023/04/26 10:52:56;;;;;;;16.50;9.80;;;;;;;19.30;67.38;99399.09;128427;1086;101951;-81
2023/04/26 10:55:42;;;;;;;18.33;9.40;;;;;;;19.12;67.84;99408.28;128103;1086;102499;-82
2023/04/26 10:58:28;;;;;;;20.13;10.30;;;;;;;19.07;67.38;99407.45;128374;1086;101791;-81
2023/04/26 11:01:10;;;;;;;18.47;10.57;;;;;;;18.91;67.09;99413.94;128182;1086;101570;-83
2023/04/26 11:03:48;;;;;;;;;;;;;;;18.60;66.55;99424.98;128182;1086;102250;-85
2023/04/26 11:06:27;;;;;;;12.30;6.07;;;;;;;18.22;66.65;99427.27;128188;1086;101766;-81
2023/04/26 11:09:25;;;;;;;14.97;5.47;;;;;;;17.77;66.71;99438.36;127079;1086;104340;-84
2023/04/26 11:12:00;;;;;;;13.60;5.43;;;;;;;17.54;67.20;99435.94;127466;1086;107168;-84
2023/04/26 11:14:53;;;;;;;;;;;;;;;;;;;;;
2023/04/26 11:17:29;;;;;;;13.77;5.30;;;;;;;16.85;66.56;99445.31;127633;1086;104337;-83
2023/04/26 11:20:08;;;;;;;8.43;4.87;;;;;;;16.67;66.73;99443.68;127585;1087;104171;-81
2023/04/26 11:22:49;;;;;;;9.87;5.63;;;;;;;16.49;66.67;99446.43;127684;1085;102116;-82
2023/04/26 11:25:31;;;;;;;10.27;5.37;;;;;;;16.32;66.98;99449.16;126823;1086;104185;-82
2023/04/26 11:31:24;;;;;;;;;;;;;;;;;;;;;
2023/04/26 11:34:15;;;;;;;10.93;5.33;;;;;;;15.81;67.67;99449.32;127003;1086;104162;-79
2023/04/26 11:36:55;;;;;;;16.45;6.12;;;;;;;15.69;67.51;99455.50;126658;1086;102853;-83
2023/04/26 11:42:44;;;;;;;12.23;4.90;;;;;;;15.41;67.82;99467.84;127455;1086;102205;-83
2023/04/26 11:45:34;;;;;;;7.47;3.93;;;;;;;15.35;68.24;99462.56;127747;1086;104213;-85
2023/04/26 11:51:20;;;;;;;10.90;3.90;;;;;;;15.28;67.37;99472.27;127451;1086;103076;-81
2023/04/26 11:53:54;;;;;;;8.53;3.63;;;;;;;15.14;68.07;99474.89;126717;1086;102388;-80
2023/04/26 11:56:30;;;;;;;7.23;3.97;;;;;;;15.04;67.43;99471.38;126976;1086;102346;-81
2023/04/26 11:59:23;;;;;;;8.87;3.70;;;;;;;15.06;67.64;99476.66;127490;1086;103216;-82
2023/04/26 12:05:15;;;;;;;6.27;3.20;;;;;;;15.15;67.14;99486.38;127736;1086;102462;-83
2023/04/26 12:07:56;;;;;;;4.60;3.23;;;;;;;15.10;67.79;99484.59;127964;1086;102127;-78
2023/04/26 12:10:36;;;;;;;6.83;3.80;;;;;;;15.09;67.65;99487.23;127513;1086;102101;-79
2023/04/26 12:13:24;;;;;;;4.83;3.20;;;;;;;15.09;67.21;99492.52;128360;1086;111727;-81
2023/04/26 12:16:00;;;;;;;5.93;3.50;;;;;;;15.02;67.19;99486.36;127928;1086;102092;-84
2023/04/26 12:18:56;;;;;;;7.67;3.27;;;;;;;14.96;68.20;99488.98;127640;1086;104264;-82
2023/04/26 12:21:44;;;;;;;5.57;3.13;;;;;;;14.83;68.09;99503.03;127752;1086;104113;-81
2023/04/26 12:24:25;;;;;;;5.67;3.50;;;;;;;14.72;67.58;99488.06;127865;1086;102306;-82
2023/04/26 12:27:05;;;;;;;;;;;;;;;;;;;;;